Weather Data

Pearl Creek Farm: 8878 N Farm Road 75, Walnut Grove MO 65770

<== Previous Day (Thursday 06 Apr 2017) | Next Day (Saturday 08 Apr 2017) ==>

Summary Precipitation Data For Friday 07 April 2017

ElementValueUnits
PrecipitationT
NotesLight frost.
SourcePearl Creek Farm

Summary Temperature Data For Friday 07 April 2017

ElementValueUnits
High Temperature63 oF
Low Temperature33 oF
Average Temperature50 oF
High Humidity82 %
Low Humidity26 %
Average Humidity50 %
SourceSpringfield-Branson National Airport (SGF)

Detail Temperature Data For Friday 07 April 2017

Date / TimeTemp (F)RH (%)Dew Pt (F)Report Date / TimeSource
2017-04-07 14:52:00 62 26 27.0 2017-12-29 17:00:26.17417 Springfield-Branson National Airport (SGF)
2017-04-07 00:52:00 40 70 31.0 2017-12-29 17:00:26.17417 Springfield-Branson National Airport (SGF)
2017-04-07 01:52:00 37 76 30.0 2017-12-29 17:00:26.17417 Springfield-Branson National Airport (SGF)
2017-04-07 02:52:00 35 78 29.0 2017-12-29 17:00:26.17417 Springfield-Branson National Airport (SGF)
2017-04-07 03:52:00 33 82 28.0 2017-12-29 17:00:26.17417 Springfield-Branson National Airport (SGF)
2017-04-07 04:52:00 35 78 29.0 2017-12-29 17:00:26.17417 Springfield-Branson National Airport (SGF)
2017-04-07 05:52:00 33 82 28.0 2017-12-29 17:00:26.17417 Springfield-Branson National Airport (SGF)
2017-04-07 06:52:00 37 82 32.0 2017-12-29 17:00:26.17417 Springfield-Branson National Airport (SGF)
2017-04-07 07:52:00 47 61 34.0 2017-12-29 17:00:26.17417 Springfield-Branson National Airport (SGF)
2017-04-07 08:52:00 51 48 32.0 2017-12-29 17:00:26.17417 Springfield-Branson National Airport (SGF)
2017-04-07 09:52:00 54 38 29.0 2017-12-29 17:00:26.17417 Springfield-Branson National Airport (SGF)
2017-04-07 10:52:00 56 36 29.0 2017-12-29 17:00:26.17417 Springfield-Branson National Airport (SGF)
2017-04-07 11:52:00 58 36 31.0 2017-12-29 17:00:26.17417 Springfield-Branson National Airport (SGF)
2017-04-07 12:52:00 60 33 31.0 2017-12-29 17:00:26.17417 Springfield-Branson National Airport (SGF)
2017-04-07 13:52:00 62 29 29.0 2017-12-29 17:00:26.17417 Springfield-Branson National Airport (SGF)
2017-04-07 15:52:00 63 29 30.0 2017-12-29 17:00:26.17417 Springfield-Branson National Airport (SGF)
2017-04-07 16:52:00 63 27 28.0 2017-12-29 17:00:26.17417 Springfield-Branson National Airport (SGF)
2017-04-07 17:52:00 62 28 28.0 2017-12-29 17:00:26.17417 Springfield-Branson National Airport (SGF)
2017-04-07 18:52:00 57 42 34.0 2017-12-29 17:00:26.17417 Springfield-Branson National Airport (SGF)
2017-04-07 19:52:00 51 52 34.0 2017-12-29 17:00:26.17417 Springfield-Branson National Airport (SGF)
2017-04-07 20:52:00 52 49 33.0 2017-12-29 17:00:26.17417 Springfield-Branson National Airport (SGF)
2017-04-07 21:52:00 53 41 30.0 2017-12-29 17:00:26.17417 Springfield-Branson National Airport (SGF)
2017-04-07 22:52:00 52 43 30.0 2017-12-29 17:00:26.17417 Springfield-Branson National Airport (SGF)
2017-04-07 23:52:00 53 40 29.0 2017-12-29 17:00:26.17417 Springfield-Branson National Airport (SGF)

A total of 24 rows are displayed.